Live Your Life

Объявление

Информация о пользователе

Привет, Гость! Войдите или зарегистрируйтесь.


Вы здесь » Live Your Life » Неформат


Неформат

Тем 1 страница 30 из 36

Тема Ответов Просмотров Последнее сообщение
1 Ever after  Вьюга
2 204 Вчера 22:17:59  Вьюга
178 5226 Вчера 20:33:40  logan
3 Атлантида  Kiros56488123
12 454 Вчера 20:06:11  Kiros56488123
16 354 Вчера 01:01:44  Pa-ku
114 4736 16-11-2018 15:08:38  Automation baby
85 3452 15-11-2018 15:11:32  DeWitt
7 В шаге от трона  Королевство Камбрия
9 229 15-11-2018 11:00:25  Королевство Камбрия
9 317 14-11-2018 20:21:43  Hurley
21 1503 14-11-2018 16:59:11  Флинт
201 11786 14-11-2018 14:19:04  LRS
11 Nex|t|us  Melinda
14 1198 14-11-2018 08:20:39  Melinda
6 416 11-11-2018 18:55:21  Fro
11 384 11-11-2018 16:31:20  Margarit Crowx
14 Нассау  Летучий Голландец  [ Тема 14 Page 1 Тема 14 Page 2 Тема 14 Page 3 ]
44 2316 09-11-2018 19:24:34  Флинт
15 Malleus_Malefikarum  Инквизитор
2 186 09-11-2018 13:29:28  Инквизитор
33 987 09-11-2018 12:15:48  до_одури
45 4585 09-11-2018 01:11:28  Prologue
21 551 07-11-2018 23:52:45  Herzog
33 1647 07-11-2018 19:33:05  Дэк
27 1118 07-11-2018 14:31:25  Огнеязыцый
1 44 07-11-2018 06:42:03  Hurley
22 The Mist  Mao
11 1061 05-11-2018 12:14:51  Mao
23 Космический ветер  Кот капитана Флинта  [ Тема 23 Page 1 Тема 23 Page 2 ]
30 1432 05-11-2018 06:02:21  Кот капитана Флинта
10 846 03-11-2018 02:01:04  Oxymoron
25 lucomoria  sonnegrau
3 152 26-10-2018 18:03:20  sonnegrau
26 Tempus Futurum  Jonah
13 484 23-10-2018 12:13:13  Jonah
27 Deviant  переснежник
9 346 23-10-2018 10:02:20  Teacook
1 242 15-10-2018 20:25:56  Morgoth
29 blood & water  Aleander
4 282 06-10-2018 13:23:11  Aleander
30 Holy Sh!t  грандоченька смерти
4 219 05-10-2018 00:19:17  грандоченька смерти

Вы здесь » Live Your Life » Неформат


Рейтинг форумов | Создать форум бесплатно © 2007–2017 «QuadroSystems» LLC